• Join FlightAware (Why Join?)
  • Login
  • US Flag 
12:46AM EST


 

Airport Tracker/Info


-or-


 

Live Flight TrackerFlight Track Log ✈ SWA3206 ✈ 05-May-2013 ✈ KSAN - KPHX

Flight Track Log - Related Links

Times and Time Zones

All times are in EDT time to prevent confusion due to time zone crossing. See the SWA3206 flight status page for this flight to view local times or setup timezone preferences in your user account.

Time Position Orientation Groundspeed Altitude Reporting Facility
EDT Latitude Longitude Course Direction KTS MPH feet Rate Location/Type
06:58PM 32.7422 -117.2272 282° West 161 185 1,500  Level Los Angeles Center
06:59PM 32.7547 -117.2967 282° West 205 236 4,000 2,640 Climbing Los Angeles Center
07:00PM 32.6978 -117.3069 189° South 260 299 7,100 3,600 Climbing Los Angeles Center
07:01PM 32.6500 -117.2417 131° Southeast 273 314 11,500 3,420 Climbing Los Angeles Center
07:03PM 32.6133 -116.9883 100° East 365 420 17,800 3,000 Climbing Los Angeles Center
07:04PM 32.6222 -116.8561 85° East 397 457 20,900 3,060 Climbing Los Angeles Center
07:05PM 32.6364 -116.7178 83° East 425 489 24,100 2,880 Climbing Los Angeles Center
07:06PM 32.6489 -116.5847 84° East 413 475 26,900 1,380 Climbing Los Angeles Center
07:07PM 32.6644 -116.4244 83° East 413 475 27,000  Climbing Los Angeles Center
07:08PM 32.6739 -116.3186 84° East 414 476 27,000  Level Los Angeles Center
07:09PM 32.6892 -116.1572 84° East 416 479 27,000  Level Los Angeles Center
07:11PM 32.7019 -116.0208 84° East 421 484 27,000  Level Los Angeles Center
07:12PM 32.7147 -115.8836 84° East 421 484 27,000 900 Level Los Angeles Center
07:13PM 32.7303 -115.7178 84° East 426 490 28,900 960 Climbing Los Angeles Center
07:14PM 32.7433 -115.5742 84° East 437 503 29,000  Climbing Los Angeles Center
07:15PM 32.7511 -115.4314 86° East 437 503 29,000  Level Los Angeles Center
07:16PM 32.7539 -115.2914 89° East 429 494 29,000  Level Los Angeles Center
07:17PM 32.7594 -115.1506 87° East 427 491 29,000 -60 Level Los Angeles Center
07:18PM 32.7622 -114.9811 89° East 428 493 28,900  Descending Los Angeles Center
07:19PM 32.7672 -114.8392 88° East 429 494 29,000  Climbing Los Angeles Center
07:20PM 32.7689 -114.6956 89° East 433 498 29,000  Level Los Angeles Center
07:21PM 32.7708 -114.5531 89° East 433 498 29,000  Level Los Angeles Center
07:22PM 32.7711 -114.4108 90° East 431 496 29,000 -300 Level Los Angeles Center
07:23PM 32.7742 -114.2681 89° East 432 497 28,500 -1,800 Descending Los Angeles Center
07:24PM 32.7764 -114.0964 89° East 432 497 25,400 -2,640 Descending Los Angeles Center
07:24PM 32.7769 -114.0761 88° East 435 501 25,100 -360 Descending Albuquerque Center
07:25PM 32.7803 -113.9361 88° East 429 494 25,000 -60 Descending Albuquerque Center
07:26PM 32.8022 -113.7950 79° East 436 502 25,000  Level Albuquerque Center
07:27PM 32.8400 -113.6586 72° East 442 509 25,000  Level Albuquerque Center
07:28PM 32.9239 -113.5436 49° Northeast 455 524 25,000 -1,080 Level Albuquerque Center
07:29PM 33.0217 -113.4100 49° Northeast 446 513 22,800 -1,740 Descending Albuquerque Center
07:30PM 33.1011 -113.3019 49° Northeast 436 502 21,500 -1,680 Descending Albuquerque Center
07:31PM 33.1772 -113.1994 48° Northeast 418 481 19,400 -2,220 Descending Albuquerque Center
07:32PM 33.2514 -113.0975 49° Northeast 409 471 17,000 -1,260 Descending Albuquerque Center
07:33PM 33.2764 -112.9839 75° East 372 428 16,900 -420 Descending Albuquerque Center
07:34PM 33.2792 -112.8658 88° East 356 410 16,200 -540 Descending Albuquerque Center
07:35PM 33.2811 -112.7550 89° East 343 395 15,900 -540 Descending Albuquerque Center
07:36PM 33.2833 -112.6489 89° East 327 376 15,200 -1,200 Descending Albuquerque Center
07:38PM 33.2875 -112.5325 88° East 317 365 13,500 -1,620 Descending Albuquerque Center
07:39PM 33.2897 -112.4283 89° East 315 362 11,900 -1,260 Descending Albuquerque Center
07:40PM 33.2936 -112.3294 87° East 303 349 11,000 -960 Descending Albuquerque Center
07:41PM 33.3011 -112.2361 84° East 287 330 10,000 -1,020 Descending Albuquerque Center
07:42PM 33.3072 -112.1469 85° East 274 315 9,000 -780 Descending Albuquerque Center
07:43PM 33.3183 -112.0656 81° East 250 288 8,500 -840 Descending Albuquerque Center
07:44PM 33.3381 -111.9878 73° East 245 282 7,400 -960 Descending Albuquerque Center
07:45PM 33.3453 -111.8917 85° East 239 275 6,600 -1,140 Descending Albuquerque Center
07:46PM 33.3589 -111.8239 76° East 237 273 5,100 -1,500 Descending Albuquerque Center
07:47PM 33.4081 -111.8467 339° North 215 247 3,600 -1,200 Descending Albuquerque Center
07:48PM 33.4286 -111.8981 296° West 178 205 2,700 -840 Descending Albuquerque Center
07:49PM 33.4294 -111.9500 271° West 157 181 1,900 -780 Descending Albuquerque Center
07:50PM 33.4283 -112.0006 269° West 137 158 1,200 -720 Descending Albuquerque Center